createdAt,value
2022-08-20T00:01:51.933Z,26.97
2022-08-20T00:04:24.824Z,26.99
2022-08-20T00:06:56.018Z,26.96
2022-08-20T00:09:27.328Z,26.94
2022-08-20T00:12:01.730Z,26.89
2022-08-20T00:14:33.890Z,26.87
2022-08-20T00:17:05.946Z,26.85
2022-08-20T00:19:37.095Z,26.84
2022-08-20T00:22:08.316Z,26.84
2022-08-20T00:24:39.731Z,26.80
2022-08-20T00:27:10.949Z,26.73
2022-08-20T00:29:41.968Z,26.72
2022-08-20T00:32:13.116Z,26.75
2022-08-20T00:34:44.266Z,26.72
2022-08-20T00:37:15.549Z,26.68
2022-08-20T00:39:46.739Z,26.64
2022-08-20T00:42:17.925Z,26.62
2022-08-20T00:44:49.013Z,26.63
2022-08-20T00:47:20.748Z,26.62
2022-08-20T00:49:51.733Z,26.60
2022-08-20T00:52:22.945Z,26.58
2022-08-20T00:54:56.975Z,26.52
2022-08-20T00:57:53.294Z,26.51
2022-08-20T01:00:23.881Z,26.47
2022-08-20T01:02:55.353Z,26.45
2022-08-20T01:05:28.658Z,26.48
2022-08-20T01:08:01.190Z,26.41
2022-08-20T01:10:35.458Z,26.35
2022-08-20T01:13:10.228Z,26.38
2022-08-20T01:15:43.532Z,26.35
2022-08-20T01:18:16.326Z,26.30
2022-08-20T01:20:49.802Z,26.30
2022-08-20T01:23:31.518Z,26.29
2022-08-20T01:26:05.058Z,26.25
2022-08-20T01:28:40.973Z,26.28
2022-08-20T01:31:13.588Z,26.22
2022-08-20T01:33:45.393Z,26.19
2022-08-20T01:36:18.022Z,26.19
2022-08-20T01:38:53.901Z,26.20
2022-08-20T01:41:30.780Z,26.22
2022-08-20T01:44:02.116Z,26.21
2022-08-20T01:46:36.882Z,26.26
2022-08-20T01:49:23.369Z,26.20
2022-08-20T01:51:55.750Z,26.17
2022-08-20T01:54:27.516Z,26.18
2022-08-20T01:57:01.677Z,26.16
2022-08-20T01:59:33.128Z,26.11
2022-08-20T02:02:04.882Z,26.08
2022-08-20T02:04:36.401Z,26.09
2022-08-20T02:07:08.552Z,26.05
2022-08-20T02:09:40.941Z,26.06
2022-08-20T02:12:14.327Z,26.05
2022-08-20T02:14:47.478Z,26.07
2022-08-20T02:17:19.342Z,26.09
2022-08-20T02:19:53.318Z,26.12
2022-08-20T02:22:27.812Z,26.11
2022-08-20T02:24:58.992Z,26.12
2022-08-20T02:27:30.057Z,26.10
2022-08-20T02:30:01.809Z,26.05
2022-08-20T02:32:34.176Z,26.02
2022-08-20T02:35:06.298Z,25.94
2022-08-20T02:37:37.997Z,25.92
2022-08-20T02:40:11.088Z,25.89
2022-08-20T02:42:42.874Z,25.85
2022-08-20T02:45:16.556Z,25.85
2022-08-20T02:47:51.128Z,25.83
2022-08-20T02:50:23.316Z,25.79
2022-08-20T02:52:54.639Z,25.77
2022-08-20T02:55:28.114Z,25.73
2022-08-20T02:58:00.953Z,25.73
2022-08-20T03:00:38.427Z,25.69
2022-08-20T03:03:10.799Z,25.68
2022-08-20T03:05:43.176Z,25.66
2022-08-20T03:08:16.092Z,25.64
2022-08-20T03:10:47.940Z,25.63
2022-08-20T03:13:19.828Z,25.63
2022-08-20T03:15:55.363Z,25.56
2022-08-20T03:18:30.956Z,25.54
2022-08-20T03:21:02.566Z,25.47
2022-08-20T03:23:34.654Z,25.41
2022-08-20T03:26:07.600Z,25.37
2022-08-20T03:28:39.357Z,25.33
2022-08-20T03:31:10.794Z,25.33
2022-08-20T03:33:53.219Z,25.25
2022-08-20T03:36:27.960Z,25.20
2022-08-20T03:39:02.487Z,25.19
2022-08-20T03:41:33.672Z,25.18
2022-08-20T03:44:04.913Z,25.19
2022-08-20T03:46:36.308Z,25.21
2022-08-20T03:49:07.406Z,25.15
2022-08-20T03:51:57.939Z,25.15
2022-08-20T03:54:31.964Z,25.14
2022-08-20T03:57:12.451Z,25.21
2022-08-20T03:59:44.897Z,25.23
2022-08-20T04:02:16.056Z,25.16
2022-08-20T04:04:47.307Z,25.09
2022-08-20T04:07:20.828Z,25.06
2022-08-20T04:09:51.979Z,25.07
2022-08-20T04:12:23.247Z,25.06
2022-08-20T04:14:54.711Z,25.08
2022-08-20T04:17:26.258Z,25.17
2022-08-20T04:19:57.360Z,25.21
2022-08-20T04:22:28.493Z,25.23
2022-08-20T04:24:59.657Z,25.29
2022-08-20T04:27:32.940Z,25.33
2022-08-20T04:30:04.534Z,25.34
2022-08-20T04:32:37.255Z,25.37
2022-08-20T04:35:12.609Z,25.33
2022-08-20T04:37:44.081Z,25.34
2022-08-20T04:40:37.465Z,25.27
2022-08-20T04:43:08.579Z,25.26
2022-08-20T04:45:43.973Z,25.14
2022-08-20T04:48:15.521Z,24.96
2022-08-20T04:50:47.337Z,24.91
2022-08-20T04:53:23.964Z,24.84
2022-08-20T04:55:57.837Z,24.83
2022-08-20T04:58:30.676Z,24.87
2022-08-20T05:01:03.174Z,24.87
2022-08-20T05:03:35.090Z,24.93
2022-08-20T05:06:07.593Z,25.01
2022-08-20T05:08:38.708Z,25.05
2022-08-20T05:11:34.253Z,24.94
2022-08-20T05:14:02.003Z,24.87
2022-08-20T05:16:33.337Z,24.86
2022-08-20T05:19:04.449Z,24.83
2022-08-20T05:21:35.558Z,24.81
2022-08-20T05:24:07.364Z,24.83
2022-08-20T05:26:38.476Z,24.81
2022-08-20T05:29:09.718Z,24.80
2022-08-20T05:31:42.304Z,24.66
2022-08-20T05:34:13.816Z,24.62
2022-08-20T05:36:46.934Z,24.66
2022-08-20T05:39:19.888Z,24.62
2022-08-20T05:41:53.185Z,24.64
2022-08-20T05:44:24.278Z,24.71
2022-08-20T05:46:55.468Z,24.83
2022-08-20T05:49:27.108Z,24.87
2022-08-20T05:51:58.687Z,24.83
2022-08-20T05:54:29.726Z,24.82
2022-08-20T05:57:00.872Z,24.95
2022-08-20T05:59:31.911Z,25.12
2022-08-20T06:02:23.063Z,25.14
2022-08-20T06:04:56.160Z,25.18
2022-08-20T06:07:27.481Z,25.19
2022-08-20T06:09:58.569Z,25.23
2022-08-20T06:12:29.675Z,25.32
2022-08-20T06:15:01.012Z,25.57
2022-08-20T06:17:39.437Z,25.68
2022-08-20T06:20:12.130Z,25.81
2022-08-20T06:22:45.444Z,25.85
2022-08-20T06:25:16.718Z,25.87
2022-08-20T06:27:47.947Z,25.95
2022-08-20T06:30:19.252Z,26.05
2022-08-20T06:32:51.587Z,26.22
2022-08-20T06:35:22.745Z,26.31
2022-08-20T06:37:54.353Z,26.34
2022-08-20T06:40:28.887Z,26.27
2022-08-20T06:42:59.953Z,26.35
2022-08-20T06:45:32.899Z,26.47
2022-08-20T06:48:11.218Z,26.72
2022-08-20T06:50:48.264Z,27.18
2022-08-20T06:53:21.038Z,27.60
2022-08-20T06:55:53.661Z,27.78
2022-08-20T06:58:37.663Z,27.91
2022-08-20T07:01:11.340Z,28.03
2022-08-20T07:03:55.869Z,27.81
2022-08-20T07:06:27.446Z,27.70
2022-08-20T07:08:58.828Z,27.53
2022-08-20T07:11:30.330Z,27.47
2022-08-20T07:14:04.989Z,27.44
2022-08-20T07:16:36.089Z,27.38
2022-08-20T07:19:07.208Z,27.31
2022-08-20T07:21:38.202Z,27.26
2022-08-20T07:24:10.010Z,27.25
2022-08-20T07:26:41.378Z,27.28
2022-08-20T07:29:12.656Z,27.29
2022-08-20T07:32:00.895Z,27.34
2022-08-20T07:34:32.021Z,27.61
2022-08-20T07:37:03.199Z,28.05
2022-08-20T07:39:35.688Z,28.40
2022-08-20T07:42:07.664Z,28.79
2022-08-20T07:44:39.668Z,29.27
2022-08-20T07:47:10.814Z,30.05
2022-08-20T07:49:42.170Z,30.22
2022-08-20T07:52:13.554Z,30.21
2022-08-20T07:54:44.749Z,30.70
2022-08-20T07:57:17.562Z,31.22
2022-08-20T07:59:49.058Z,31.14
2022-08-20T08:02:20.156Z,30.80
2022-08-20T08:04:51.335Z,30.69
2022-08-20T08:07:23.222Z,30.67
2022-08-20T08:09:54.896Z,30.60
2022-08-20T08:12:30.183Z,30.67
2022-08-20T08:15:01.211Z,30.80
2022-08-20T08:17:33.231Z,30.97
2022-08-20T08:20:06.290Z,31.01
2022-08-20T08:22:37.745Z,30.95
2022-08-20T08:25:09.584Z,30.73
2022-08-20T08:27:40.774Z,30.70
2022-08-20T08:30:13.061Z,30.85
2022-08-20T08:32:58.171Z,30.82
2022-08-20T08:35:32.969Z,30.97
2022-08-20T08:38:04.132Z,31.28
2022-08-20T08:40:35.559Z,31.85
2022-08-20T08:43:06.836Z,32.31
2022-08-20T08:45:46.060Z,32.29
2022-08-20T08:48:18.748Z,32.39
2022-08-20T08:50:53.977Z,32.55
2022-08-20T08:53:26.747Z,32.55
2022-08-20T08:55:57.994Z,32.39
2022-08-20T08:58:29.571Z,32.16
2022-08-20T09:01:05.798Z,31.97
2022-08-20T09:03:43.712Z,31.77
2022-08-20T09:06:16.521Z,31.54
2022-08-20T09:08:50.145Z,31.14
2022-08-20T09:11:23.388Z,31.13
2022-08-20T09:13:54.844Z,31.12
2022-08-20T09:16:27.997Z,31.13
2022-08-20T09:19:01.524Z,31.21
2022-08-20T09:21:32.768Z,31.11
2022-08-20T09:24:05.198Z,31.11
2022-08-20T09:26:39.051Z,31.00
2022-08-20T09:29:10.454Z,30.94
2022-08-20T09:31:41.548Z,30.92
2022-08-20T09:34:12.745Z,30.98
2022-08-20T09:36:43.982Z,31.08
2022-08-20T09:39:16.293Z,31.12
2022-08-20T09:41:47.564Z,31.23
2022-08-20T09:44:19.483Z,31.16
2022-08-20T09:46:50.511Z,31.07
2022-08-20T09:49:21.601Z,31.10
2022-08-20T09:51:52.889Z,31.35
2022-08-20T09:54:24.056Z,31.43
2022-08-20T09:56:56.762Z,31.49
2022-08-20T09:59:28.140Z,31.65
2022-08-20T10:01:59.462Z,31.89
2022-08-20T10:04:30.686Z,32.04
2022-08-20T10:07:01.942Z,31.99
2022-08-20T10:09:35.024Z,32.00
2022-08-20T10:12:06.554Z,31.90
2022-08-20T10:14:37.616Z,31.76
2022-08-20T10:17:08.824Z,31.57
2022-08-20T10:19:40.222Z,31.58
2022-08-20T10:22:11.400Z,31.71
2022-08-20T10:24:42.595Z,31.78
2022-08-20T10:27:13.758Z,31.74
2022-08-20T10:29:47.009Z,31.63
2022-08-20T10:32:18.681Z,31.56
2022-08-20T10:34:52.264Z,31.62
2022-08-20T10:37:24.688Z,31.70
2022-08-20T10:39:56.438Z,31.68
2022-08-20T10:42:27.691Z,31.71
2022-08-20T10:44:58.849Z,31.84
2022-08-20T10:47:31.127Z,31.86
2022-08-20T10:50:03.899Z,31.83
2022-08-20T10:52:35.233Z,31.82
2022-08-20T10:55:07.163Z,31.87
2022-08-20T10:57:39.716Z,31.86
2022-08-20T11:00:12.795Z,31.85
2022-08-20T11:02:44.135Z,31.90
2022-08-20T11:05:15.203Z,31.84
2022-08-20T11:07:50.583Z,31.71
2022-08-20T11:10:29.351Z,31.69
2022-08-20T11:13:00.516Z,31.74
2022-08-20T11:15:31.746Z,32.06
2022-08-20T11:18:02.740Z,32.35
2022-08-20T11:20:34.169Z,32.47
2022-08-20T11:23:05.841Z,32.58
2022-08-20T11:25:36.865Z,32.75
2022-08-20T11:28:08.305Z,32.88
2022-08-20T11:30:39.451Z,32.96
2022-08-20T11:33:10.668Z,33.11
2022-08-20T11:35:48.336Z,33.21
2022-08-20T11:38:20.510Z,33.18
2022-08-20T11:40:51.568Z,33.24
2022-08-20T11:43:22.670Z,33.13
2022-08-20T11:45:57.678Z,33.03
2022-08-20T11:48:28.829Z,33.05
2022-08-20T11:51:00.116Z,33.02
2022-08-20T11:53:31.425Z,32.87
2022-08-20T11:56:04.368Z,32.92
2022-08-20T11:58:35.499Z,32.87
2022-08-20T12:01:06.770Z,32.87
2022-08-20T12:03:38.095Z,32.81
2022-08-20T12:06:09.369Z,32.79
2022-08-20T12:08:40.419Z,32.84
2022-08-20T12:11:11.537Z,32.77
2022-08-20T12:13:48.681Z,32.68
2022-08-20T12:16:20.419Z,32.71
2022-08-20T12:18:52.196Z,32.83
2022-08-20T12:21:23.238Z,32.93
2022-08-20T12:23:54.334Z,33.17
2022-08-20T12:26:25.376Z,33.46
2022-08-20T12:28:57.038Z,33.68
2022-08-20T12:31:28.164Z,33.72
2022-08-20T12:33:59.208Z,33.90
2022-08-20T12:36:30.252Z,33.78
2022-08-20T12:39:01.340Z,33.53
2022-08-20T12:41:32.598Z,33.41
2022-08-20T12:44:07.358Z,33.40
2022-08-20T12:46:44.569Z,33.33
2022-08-20T12:49:15.577Z,33.28
2022-08-20T12:51:46.560Z,33.30
2022-08-20T12:54:17.573Z,33.35
2022-08-20T12:56:48.692Z,34.03
2022-08-20T12:59:21.998Z,34.77
2022-08-20T13:01:56.597Z,35.17
2022-08-20T13:04:27.648Z,35.16
2022-08-20T13:07:02.993Z,35.02
2022-08-20T13:09:34.098Z,34.76
2022-08-20T13:12:05.577Z,34.55
2022-08-20T13:14:36.986Z,34.42
2022-08-20T13:17:08.392Z,34.26
2022-08-20T13:19:40.390Z,33.98
2022-08-20T13:22:11.390Z,33.74
2022-08-20T13:24:42.537Z,33.66
2022-08-20T13:27:15.503Z,33.58
2022-08-20T13:29:49.458Z,33.52
2022-08-20T13:32:21.356Z,33.40
2022-08-20T13:34:52.760Z,33.39
2022-08-20T13:37:25.867Z,33.37
2022-08-20T13:39:58.914Z,33.28
2022-08-20T13:42:30.079Z,33.17
2022-08-20T13:45:01.181Z,33.08
2022-08-20T13:47:34.473Z,33.12
2022-08-20T13:50:08.560Z,33.14
2022-08-20T13:52:42.552Z,33.13
2022-08-20T13:55:15.208Z,33.08
2022-08-20T13:57:47.170Z,33.09
2022-08-20T14:00:21.010Z,33.09
2022-08-20T14:03:02.920Z,33.01
2022-08-20T14:05:34.798Z,32.91
2022-08-20T14:08:10.145Z,32.77
2022-08-20T14:10:42.746Z,32.73
2022-08-20T14:13:15.748Z,32.82
2022-08-20T14:15:47.481Z,32.84
2022-08-20T14:18:18.805Z,32.77
2022-08-20T14:20:50.437Z,32.74
2022-08-20T14:23:21.573Z,32.70
2022-08-20T14:25:52.569Z,32.71
2022-08-20T14:28:24.530Z,32.76
2022-08-20T14:30:55.749Z,32.68
2022-08-20T14:33:27.092Z,32.70
2022-08-20T14:35:58.070Z,32.70
2022-08-20T14:38:29.179Z,32.60
2022-08-20T14:41:00.467Z,32.48
2022-08-20T14:43:31.429Z,32.39
2022-08-20T14:46:02.782Z,32.41
2022-08-20T14:48:33.966Z,32.49
2022-08-20T14:51:07.247Z,32.54
2022-08-20T14:53:40.484Z,32.41
2022-08-20T14:56:11.940Z,32.37
2022-08-20T14:58:43.177Z,32.37
2022-08-20T15:01:14.333Z,32.37
2022-08-20T15:03:45.589Z,32.26
2022-08-20T15:06:21.972Z,32.30
2022-08-20T15:08:53.604Z,32.28
2022-08-20T15:11:24.900Z,32.19
2022-08-20T15:13:56.521Z,32.10
2022-08-20T15:16:28.458Z,31.98
2022-08-20T15:19:00.336Z,31.87
2022-08-20T15:21:44.795Z,31.88
2022-08-20T15:24:19.550Z,31.87
2022-08-20T15:26:50.814Z,31.83
2022-08-20T15:29:22.665Z,31.87
2022-08-20T15:31:54.689Z,31.92
2022-08-20T15:34:25.775Z,31.91
2022-08-20T15:36:58.009Z,31.96
2022-08-20T15:39:29.267Z,31.83
2022-08-20T15:42:00.390Z,31.90
2022-08-20T15:44:31.640Z,31.83
2022-08-20T15:47:13.699Z,31.80
2022-08-20T15:49:45.606Z,31.76
2022-08-20T15:52:16.735Z,31.79
2022-08-20T15:54:48.639Z,31.77
2022-08-20T15:57:34.512Z,31.68
2022-08-20T16:00:11.733Z,31.63
2022-08-20T16:02:55.313Z,31.63
2022-08-20T16:05:30.548Z,31.56
2022-08-20T16:08:09.275Z,31.50
2022-08-20T16:10:47.466Z,31.41
2022-08-20T16:13:29.418Z,31.39
2022-08-20T16:16:03.050Z,31.38
2022-08-20T16:18:34.846Z,31.37
2022-08-20T16:21:09.367Z,31.32
2022-08-20T16:23:42.145Z,31.36
2022-08-20T16:26:24.648Z,31.31
2022-08-20T16:28:59.379Z,31.26
2022-08-20T16:31:33.993Z,31.24
2022-08-20T16:34:32.866Z,31.21
2022-08-20T16:37:10.497Z,31.15
2022-08-20T16:39:47.648Z,31.08
2022-08-20T16:42:22.702Z,31.00
2022-08-20T16:44:55.400Z,30.94
2022-08-20T16:47:29.798Z,30.91
2022-08-20T16:50:02.643Z,30.87
2022-08-20T16:52:34.151Z,30.85
2022-08-20T16:55:05.647Z,30.75
2022-08-20T16:57:36.928Z,30.72
2022-08-20T17:00:14.578Z,30.67
2022-08-20T17:02:53.598Z,30.62
2022-08-20T17:05:26.590Z,30.63
2022-08-20T17:08:01.210Z,30.57
2022-08-20T17:10:33.764Z,30.51
2022-08-20T17:13:06.723Z,30.47
2022-08-20T17:15:37.820Z,30.39
2022-08-20T17:18:23.474Z,30.34
2022-08-20T17:20:54.877Z,30.29
2022-08-20T17:23:26.495Z,30.23
2022-08-20T17:25:59.478Z,30.24
2022-08-20T17:28:35.143Z,30.19
2022-08-20T17:31:07.201Z,30.19
2022-08-20T17:33:40.675Z,30.12
2022-08-20T17:36:18.630Z,30.06
2022-08-20T17:38:51.436Z,30.06
2022-08-20T17:41:24.951Z,29.99
2022-08-20T17:44:00.337Z,29.93
2022-08-20T17:46:34.032Z,29.87
2022-08-20T17:49:08.312Z,29.80
2022-08-20T17:51:40.755Z,29.77
2022-08-20T17:54:14.696Z,29.72
2022-08-20T17:56:45.757Z,29.67
2022-08-20T17:59:23.933Z,29.64
2022-08-20T18:02:13.297Z,29.57
2022-08-20T18:04:44.836Z,29.53
2022-08-20T18:07:19.681Z,29.46
2022-08-20T18:09:57.431Z,29.41
2022-08-20T18:12:34.389Z,29.31
2022-08-20T18:15:09.791Z,29.26
2022-08-20T18:17:59.332Z,29.20
2022-08-20T18:20:46.448Z,29.13
2022-08-20T18:23:20.667Z,29.12
2022-08-20T18:25:54.342Z,29.04
2022-08-20T18:28:33.183Z,29.01
2022-08-20T18:31:10.703Z,28.97
2022-08-20T18:33:43.152Z,28.91
2022-08-20T18:36:24.501Z,28.91
2022-08-20T18:39:00.189Z,28.81
2022-08-20T18:41:33.029Z,28.77
2022-08-20T18:44:06.433Z,28.67
2022-08-20T18:46:37.636Z,28.57
2022-08-20T18:49:09.433Z,28.55
2022-08-20T18:51:42.599Z,28.47
2022-08-20T18:54:24.521Z,28.42
2022-08-20T18:57:05.386Z,28.39
2022-08-20T18:59:46.169Z,28.35
2022-08-20T19:02:20.391Z,28.30
2022-08-20T19:05:02.147Z,28.13
2022-08-20T19:07:45.789Z,28.09
2022-08-20T19:10:32.349Z,28.00
2022-08-20T19:13:22.880Z,27.95
2022-08-20T19:15:58.615Z,27.97
2022-08-20T19:18:34.268Z,27.93
2022-08-20T19:21:06.146Z,27.93
2022-08-20T19:23:52.069Z,27.98
2022-08-20T19:26:25.874Z,27.92
2022-08-20T19:29:00.090Z,27.92
2022-08-20T19:31:32.376Z,27.88
2022-08-20T19:34:19.625Z,27.89
2022-08-20T19:36:56.253Z,27.87
2022-08-20T19:39:28.733Z,27.83
2022-08-20T19:42:03.672Z,27.82
2022-08-20T19:44:38.363Z,27.83
2022-08-20T19:47:16.700Z,27.86
2022-08-20T19:49:57.121Z,27.82
2022-08-20T19:52:35.158Z,27.72
2022-08-20T19:55:06.611Z,27.66
2022-08-20T19:57:37.728Z,27.64
2022-08-20T20:00:11.855Z,27.61
2022-08-20T20:02:43.687Z,27.51
2022-08-20T20:05:14.956Z,27.48
2022-08-20T20:07:49.253Z,27.38
2022-08-20T20:10:27.379Z,27.36
2022-08-20T20:13:00.621Z,27.32
2022-08-20T20:15:31.980Z,27.31
2022-08-20T20:18:03.092Z,27.26
2022-08-20T20:20:38.305Z,27.23
2022-08-20T20:23:22.698Z,27.19
2022-08-20T20:25:57.831Z,27.17
2022-08-20T20:28:30.207Z,27.17
2022-08-20T20:31:08.847Z,27.12
2022-08-20T20:33:43.939Z,27.12
2022-08-20T20:36:17.667Z,27.10
2022-08-20T20:38:56.772Z,27.09
2022-08-20T20:41:29.738Z,27.09
2022-08-20T20:44:02.758Z,27.10
2022-08-20T20:46:35.395Z,27.11
2022-08-20T20:49:17.788Z,27.07
2022-08-20T20:51:55.860Z,27.02
2022-08-20T20:54:28.402Z,26.96
2022-08-20T20:57:01.429Z,27.01
2022-08-20T20:59:33.492Z,26.98
2022-08-20T21:02:05.444Z,26.90
2022-08-20T21:04:40.619Z,26.85
2022-08-20T21:07:16.494Z,26.84
2022-08-20T21:09:47.650Z,26.81
2022-08-20T21:12:19.020Z,26.73
2022-08-20T21:14:50.219Z,26.72
2022-08-20T21:17:23.179Z,26.76
2022-08-20T21:19:54.428Z,26.79
2022-08-20T21:22:25.473Z,26.76
2022-08-20T21:24:56.648Z,26.74
2022-08-20T21:27:29.268Z,26.70
2022-08-20T21:30:00.497Z,26.66
2022-08-20T21:32:31.678Z,26.65
2022-08-20T21:35:02.790Z,26.61
2022-08-20T21:37:33.842Z,26.66
2022-08-20T21:40:05.632Z,26.71
2022-08-20T21:42:37.395Z,26.74
2022-08-20T21:45:10.919Z,26.72
2022-08-20T21:47:42.078Z,26.69
2022-08-20T21:50:15.738Z,26.66
2022-08-20T21:52:55.320Z,26.63
2022-08-20T21:55:36.254Z,26.63
2022-08-20T21:58:10.918Z,26.66
2022-08-20T22:01:01.381Z,26.66
2022-08-20T22:03:34.449Z,26.64
2022-08-20T22:06:10.574Z,26.59
2022-08-20T22:08:42.048Z,26.58
2022-08-20T22:11:13.550Z,26.62
2022-08-20T22:13:44.711Z,26.64
2022-08-20T22:16:17.154Z,26.61
2022-08-20T22:18:49.408Z,26.58
2022-08-20T22:21:22.115Z,26.52
2022-08-20T22:23:54.864Z,26.45
2022-08-20T22:26:27.346Z,26.41
2022-08-20T22:28:58.965Z,26.40
2022-08-20T22:31:30.991Z,26.44
2022-08-20T22:34:02.837Z,26.43
2022-08-20T22:36:34.714Z,26.42
2022-08-20T22:39:06.420Z,26.35
2022-08-20T22:41:40.937Z,26.40
2022-08-20T22:44:11.892Z,26.38
2022-08-20T22:46:47.554Z,26.42
2022-08-20T22:49:24.075Z,26.44
2022-08-20T22:51:56.612Z,26.41
2022-08-20T22:54:28.400Z,26.40
2022-08-20T22:56:59.575Z,26.42
2022-08-20T22:59:30.746Z,26.41
2022-08-20T23:02:08.397Z,26.42
2022-08-20T23:04:39.808Z,26.39
2022-08-20T23:07:13.069Z,26.38
2022-08-20T23:09:44.986Z,26.35
2022-08-20T23:12:16.200Z,26.27
2022-08-20T23:14:47.363Z,26.26
2022-08-20T23:17:19.871Z,26.22
2022-08-20T23:19:51.535Z,26.17
2022-08-20T23:22:22.702Z,26.11
2022-08-20T23:24:56.287Z,25.96
2022-08-20T23:27:32.806Z,25.82
2022-08-20T23:30:03.940Z,25.75
2022-08-20T23:32:35.038Z,25.70
2022-08-20T23:35:06.965Z,25.65
2022-08-20T23:37:39.967Z,25.61
2022-08-20T23:40:11.838Z,25.55
2022-08-20T23:42:42.881Z,25.48
2022-08-20T23:45:14.394Z,25.42
2022-08-20T23:47:45.701Z,25.44
2022-08-20T23:50:18.515Z,25.44
2022-08-20T23:52:49.929Z,25.36
2022-08-20T23:55:23.443Z,25.30
2022-08-20T23:57:54.576Z,25.30
